Time;durP1;ratioP1;P1;durP2;ratioP2;P2;SDS_P1;SDS_P2;PMS_P1;PMS_P2;Temp;Humidity;BMP_temperature;BMP_pressure;BME280_temperature;BME280_humidity;BME280_pressure;Samples;Min_cycle;Max_cycle;Signal;HPM_P1;HPM_P2
2022/07/16 00:02:50;;;;;;;6.38;2.30;;;;;;;16.42;50.53;96441.66;2080144;28;20061;-37
2022/07/16 00:03:54;;;;;;;4.88;2.22;;;;;;;16.41;51.20;96447.84;2072838;28;20045;-40
2022/07/16 00:04:55;;;;;;;9.43;3.08;;;;;;;16.40;50.19;96447.94;2065038;28;20050;-37
2022/07/16 00:05:56;;;;;;;4.97;2.25;;;;;;;16.36;49.97;96449.94;2064234;28;20054;-37
2022/07/16 00:06:58;;;;;;;5.47;2.08;;;;;;;16.33;49.75;96442.22;2065152;28;20054;-36
2022/07/16 00:07:59;;;;;;;6.72;2.47;;;;;;;16.28;51.00;96439.91;2064611;28;20045;-35
2022/07/16 00:09:00;;;;;;;8.15;3.15;;;;;;;16.24;50.92;96448.91;2064363;28;20084;-40
2022/07/16 00:10:02;;;;;;;8.85;2.67;;;;;;;16.18;51.59;96443.22;2056361;28;20054;-35
2022/07/16 00:11:03;;;;;;;7.28;2.63;;;;;;;16.10;51.19;96441.91;2049273;28;20054;-37
2022/07/16 00:12:04;;;;;;;8.85;2.55;;;;;;;16.05;51.53;96446.59;2056652;28;20050;-39
2022/07/16 00:13:06;;;;;;;7.95;2.70;;;;;;;16.01;51.42;96450.34;2057051;28;20062;-37
2022/07/16 00:14:07;;;;;;;4.82;2.50;;;;;;;16.02;52.21;96441.53;2064577;28;20047;-37
2022/07/16 00:15:08;;;;;;;5.05;2.42;;;;;;;15.95;51.54;96442.84;2056318;28;20054;-36
2022/07/16 00:16:10;;;;;;;4.78;2.50;;;;;;;15.87;52.32;96439.84;2055986;28;20409;-37
2022/07/16 00:17:11;;;;;;;5.90;2.60;;;;;;;15.84;52.84;96440.03;2064010;28;20053;-37
2022/07/16 00:20:34;;;;;;;6.60;2.58;;;;;;;15.69;53.36;96439.22;2056035;28;20062;-37
2022/07/16 00:21:36;;;;;;;8.02;2.90;;;;;;;15.65;53.60;96446.38;2064428;28;20053;-38
2022/07/16 00:22:37;;;;;;;5.82;2.88;;;;;;;15.62;53.52;96436.09;2071796;28;20038;-39
2022/07/16 00:23:38;;;;;;;5.35;2.80;;;;;;;15.58;53.48;96439.84;2067323;28;20050;-38
2022/07/16 00:24:39;;;;;;;5.00;2.47;;;;;;;15.55;53.75;96437.38;2040803;29;20054;-37
2022/07/16 00:25:40;;;;;;;8.38;2.75;;;;;;;15.55;53.41;96436.53;2040702;28;20047;-37
2022/07/16 00:26:42;;;;;;;6.85;2.50;;;;;;;15.56;53.05;96435.63;2056636;28;20055;-36
2022/07/16 00:27:45;;;;;;;6.28;2.30;;;;;;;15.54;53.24;96438.31;2064313;28;20523;-37
2022/07/16 00:28:46;;;;;;;7.50;2.47;;;;;;;15.56;53.53;96436.47;2064093;28;20046;-36
2022/07/16 00:29:48;;;;;;;8.52;2.92;;;;;;;15.56;53.19;96436.47;2068911;28;20056;-39
2022/07/16 00:30:49;;;;;;;7.50;2.40;;;;;;;15.50;53.65;96434.19;2056584;28;20054;-38
2022/07/16 00:31:51;;;;;;;10.52;2.88;;;;;;;15.47;53.81;96446.63;2056563;28;20050;-35
2022/07/16 00:32:52;;;;;;;5.60;2.22;;;;;;;15.45;53.81;96436.28;2064221;28;20065;-37
2022/07/16 00:33:53;;;;;;;6.70;2.72;;;;;;;15.39;54.25;96434.84;2072283;28;20056;-41
2022/07/16 00:34:54;;;;;;;6.35;2.30;;;;;;;15.35;54.27;96443.81;2064751;28;20042;-38
2022/07/16 00:35:56;;;;;;;8.07;2.75;;;;;;;15.31;54.51;96441.47;2064613;28;20527;-36
2022/07/16 00:36:57;;;;;;;11.18;2.70;;;;;;;15.27;54.82;96438.19;2071832;28;20068;-37
2022/07/16 00:37:58;;;;;;;7.03;2.60;;;;;;;15.23;55.24;96434.06;2063926;28;20050;-37
2022/07/16 00:38:59;;;;;;;6.40;2.65;;;;;;;15.20;55.27;96434.25;2055985;28;20050;-39
2022/07/16 00:40:00;;;;;;;7.57;2.83;;;;;;;15.16;55.24;96437.97;2056379;28;20057;-36
2022/07/16 00:41:02;;;;;;;4.53;2.35;;;;;;;15.13;55.21;96438.13;2064691;28;20061;-38
2022/07/16 00:42:03;;;;;;;5.05;2.75;;;;;;;15.11;55.30;96435.63;2080308;28;20091;-36
2022/07/16 00:43:04;;;;;;;6.18;2.20;;;;;;;15.10;55.26;96430.47;2063882;28;20061;-36
2022/07/16 00:44:08;;;;;;;8.65;2.83;;;;;;;15.08;54.97;96430.56;2056344;28;20053;-37
2022/07/16 00:45:10;;;;;;;12.48;2.83;;;;;;;15.03;55.81;96432.63;2080434;28;20065;-39
2022/07/16 00:46:11;;;;;;;9.45;3.20;;;;;;;15.00;55.84;96430.19;2080381;28;20041;-37
2022/07/16 00:47:12;;;;;;;7.03;2.25;;;;;;;14.98;55.89;96435.50;2072155;28;20061;-38
2022/07/16 00:48:13;;;;;;;6.88;2.60;;;;;;;14.97;55.54;96433.81;2063848;28;20447;-36
2022/07/16 00:49:15;;;;;;;4.82;2.70;;;;;;;14.94;55.79;96430.50;2063815;28;20106;-35
2022/07/16 00:50:17;;;;;;;5.28;2.50;;;;;;;14.90;56.03;96429.03;2079954;28;20045;-37
2022/07/16 00:51:18;;;;;;;8.35;2.47;;;;;;;14.87;56.11;96431.81;2072129;28;20050;-39
2022/07/16 00:52:19;;;;;;;10.30;2.50;;;;;;;14.87;56.47;96435.28;2056375;28;20051;-37
2022/07/16 00:53:20;;;;;;;7.70;2.88;;;;;;;14.87;56.25;96427.44;2063745;28;20042;-37
2022/07/16 00:54:22;;;;;;;5.63;2.40;;;;;;;14.91;56.30;96428.91;2064137;28;20049;-37
2022/07/16 00:55:23;;;;;;;7.35;2.42;;;;;;;14.95;55.77;96429.59;2063676;28;20578;-38
2022/07/16 00:56:24;;;;;;;7.95;2.88;;;;;;;14.97;56.13;96433.81;2080312;28;20041;-41
2022/07/16 00:57:25;;;;;;;8.90;2.80;;;;;;;15.00;56.02;96435.41;2080095;28;20057;-37
2022/07/16 00:58:27;;;;;;;6.50;2.60;;;;;;;14.99;55.95;96433.72;2056095;28;20039;-39
2022/07/16 00:59:28;;;;;;;5.40;2.63;;;;;;;14.98;56.09;96432.88;2056229;28;20050;-37
2022/07/16 01:00:29;;;;;;;7.20;2.20;;;;;;;15.00;56.79;96432.78;2064562;28;20065;-36
2022/07/16 01:01:30;;;;;;;4.53;2.70;;;;;;;15.00;56.59;96438.03;2072592;28;20435;-36
2022/07/16 01:02:33;;;;;;;7.70;2.95;;;;;;;15.00;56.89;96432.78;2080401;28;20041;-36
2022/07/16 01:03:34;;;;;;;6.53;2.83;;;;;;;15.02;56.75;96438.75;2071835;28;20057;-35
2022/07/16 01:04:36;;;;;;;4.85;2.50;;;;;;;15.01;57.33;96434.47;2080302;28;20049;-35
2022/07/16 01:05:37;;;;;;;5.15;2.30;;;;;;;15.01;57.20;96437.09;2064272;28;20050;-40
2022/07/16 01:06:39;;;;;;;6.70;2.83;;;;;;;15.00;56.83;96438.88;2056316;28;20500;-36
2022/07/16 01:07:40;;;;;;;6.15;2.90;;;;;;;14.98;57.03;96435.50;2056085;28;20057;-35
2022/07/16 01:08:42;;;;;;;5.47;2.63;;;;;;;15.01;56.72;96442.31;2063317;28;20052;-36
2022/07/16 01:09:44;;;;;;;5.47;2.50;;;;;;;14.98;56.08;96438.09;2080401;28;20065;-37
2022/07/16 01:10:45;;;;;;;5.40;2.58;;;;;;;14.97;56.26;96433.81;2072254;28;20495;-39
2022/07/16 01:11:46;;;;;;;4.70;2.70;;;;;;;14.95;56.58;96440.06;2064335;28;20058;-36
2022/07/16 01:12:47;;;;;;;10.75;3.00;;;;;;;14.91;56.52;96443.78;2071732;28;20057;-37
2022/07/16 01:13:49;;;;;;;5.80;2.70;;;;;;;14.90;56.79;96442.09;2055823;28;20058;-37
2022/07/16 01:14:51;;;;;;;7.57;2.65;;;;;;;14.90;56.17;96442.94;2056243;28;20061;-36
2022/07/16 01:15:52;;;;;;;5.90;2.47;;;;;;;14.91;56.68;96441.16;2071804;28;20534;-35
2022/07/16 01:16:53;;;;;;;7.53;3.28;;;;;;;14.87;56.51;96445.72;2064066;28;20062;-36
2022/07/16 01:17:54;;;;;;;6.28;2.80;;;;;;;14.87;56.62;96442.28;2072215;28;20053;-36
2022/07/16 01:18:56;;;;;;;5.55;3.03;;;;;;;14.87;56.79;96443.13;2071609;28;20463;-36
2022/07/16 01:19:57;;;;;;;6.32;2.80;;;;;;;14.88;56.48;96444.78;2056467;28;20043;-34
2022/07/16 01:20:58;;;;;;;5.53;2.80;;;;;;;14.87;56.41;96452.75;2056011;28;20061;-35
2022/07/16 01:21:59;;;;;;;8.18;3.22;;;;;;;14.86;56.28;96451.03;2071900;28;20057;-36
2022/07/16 01:23:01;;;;;;;6.03;2.75;;;;;;;14.84;56.60;96447.69;2071642;28;20045;-34
2022/07/16 01:24:02;;;;;;;8.43;2.90;;;;;;;14.83;56.83;96445.97;2063022;28;20054;-35
2022/07/16 01:25:03;;;;;;;5.95;2.47;;;;;;;14.94;55.54;96439.22;2071698;28;20050;-36
2022/07/16 01:26:05;;;;;;;4.00;2.63;;;;;;;14.97;55.90;96440.81;2056206;28;20070;-36
2022/07/16 01:27:06;;;;;;;5.85;2.97;;;;;;;14.92;55.86;96445.47;2048534;28;20055;-36
2022/07/16 01:28:07;;;;;;;9.15;3.40;;;;;;;14.91;55.63;96446.38;2071909;28;20069;-38
2022/07/16 01:29:08;;;;;;;7.28;2.88;;;;;;;14.92;55.81;96442.88;2063422;28;20057;-36
2022/07/16 01:30:10;;;;;;;5.07;2.80;;;;;;;14.92;55.77;96446.31;2071696;28;20660;-35
2022/07/16 01:31:11;;;;;;;10.73;3.55;;;;;;;14.94;56.29;96446.22;2080780;28;20049;-35
2022/07/16 01:32:12;;;;;;;7.93;3.22;;;;;;;14.95;55.70;96437.44;2072369;28;20054;-37
2022/07/16 01:33:30;;;;;;;7.88;2.83;;;;;;;14.96;55.66;96432.13;2072021;28;20057;-35
2022/07/16 01:34:31;;;;;;;6.20;3.00;;;;;;;14.97;55.98;96440.81;2079339;28;20438;-35
2022/07/16 01:35:32;;;;;;;7.03;3.45;;;;;;;14.97;55.22;96438.22;2079527;28;20046;-37
2022/07/16 01:36:33;;;;;;;7.97;2.95;;;;;;;14.96;55.14;96434.72;2063462;28;20043;-36
2022/07/16 01:37:35;;;;;;;8.57;3.13;;;;;;;14.96;55.55;96431.28;2063687;28;20042;-35
2022/07/16 01:38:39;;;;;;;6.75;2.92;;;;;;;14.96;55.90;96437.34;2071235;28;20105;-34
2022/07/16 01:39:41;;;;;;;5.80;3.25;;;;;;;14.96;55.74;96431.28;2064328;28;20046;-38
2022/07/16 01:40:43;;;;;;;7.80;3.00;;;;;;;14.94;56.14;96434.00;2071912;28;20478;-37
2022/07/16 01:41:52;;;;;;;8.50;2.90;;;;;;;14.94;56.21;96435.75;2063738;28;20506;-36
2022/07/16 01:42:53;;;;;;;5.65;3.10;;;;;;;14.92;56.46;96432.41;2057404;28;20042;-35
2022/07/16 01:43:54;;;;;;;5.65;3.05;;;;;;;14.92;55.50;96425.38;2055754;28;20123;-39
2022/07/16 01:44:56;;;;;;;13.65;3.40;;;;;;;14.91;55.71;96434.16;2055529;28;20057;-35
2022/07/16 01:45:58;;;;;;;7.82;3.00;;;;;;;14.90;56.04;96431.63;2040151;28;20054;-37
2022/07/16 01:46:59;;;;;;;7.80;3.20;;;;;;;14.92;55.43;96428.00;2056274;28;20062;-35
2022/07/16 01:48:00;;;;;;;10.02;3.05;;;;;;;14.88;57.50;96436.94;2065306;28;20539;-35
2022/07/16 01:49:01;;;;;;;6.57;2.78;;;;;;;14.86;56.59;96438.81;2072818;28;20439;-37
2022/07/16 01:50:03;;;;;;;11.35;3.13;;;;;;;14.83;56.59;96438.97;2082520;28;20049;-39
2022/07/16 01:51:04;;;;;;;5.50;2.92;;;;;;;14.85;55.96;96438.91;2072945;28;20427;-38
2022/07/16 01:52:11;;;;;;;4.93;2.65;;;;;;;14.78;56.55;96431.41;2065391;28;20049;-37
2022/07/16 01:53:12;;;;;;;6.18;2.92;;;;;;;14.73;56.84;96438.69;2065661;28;20050;-37
2022/07/16 01:54:13;;;;;;;4.18;2.70;;;;;;;14.73;57.40;96433.44;2057416;28;20053;-37
2022/07/16 01:55:14;;;;;;;9.75;3.10;;;;;;;14.73;56.26;96435.22;2081013;28;20050;-36
2022/07/16 01:56:16;;;;;;;10.85;3.28;;;;;;;14.72;56.88;96438.75;2065655;28;20058;-36
2022/07/16 01:57:17;;;;;;;7.13;3.35;;;;;;;14.68;56.57;96432.88;2065501;28;20058;-40
2022/07/16 01:58:18;;;;;;;6.57;3.15;;;;;;;14.65;56.43;96437.41;2065146;28;20046;-35
2022/07/16 01:59:19;;;;;;;5.95;2.60;;;;;;;14.62;56.60;96438.44;2065321;28;20500;-37
2022/07/16 02:00:21;;;;;;;8.23;3.58;;;;;;;14.60;57.10;96440.28;2065188;28;20050;-37
2022/07/16 02:01:22;;;;;;;6.50;3.10;;;;;;;14.57;57.19;96430.03;2057251;28;20051;-35
2022/07/16 02:02:23;;;;;;;9.65;3.30;;;;;;;14.53;57.31;96438.94;2064490;28;20057;-38
2022/07/16 02:03:24;;;;;;;5.57;3.30;;;;;;;14.46;58.21;96432.34;2073527;28;20053;-38
2022/07/16 02:04:25;;;;;;;5.90;2.78;;;;;;;14.40;58.97;96438.75;2064882;28;20101;-39
2022/07/16 02:05:27;;;;;;;8.38;3.25;;;;;;;14.36;59.74;96436.41;2056822;28;20053;-35
2022/07/16 02:06:28;;;;;;;7.72;3.63;;;;;;;14.30;59.93;96442.78;2064894;28;20514;-34
2022/07/16 02:07:29;;;;;;;5.72;2.88;;;;;;;14.24;60.76;96443.13;2065125;28;20042;-33
2022/07/16 02:08:30;;;;;;;8.20;3.22;;;;;;;14.22;61.39;96445.84;2064769;28;20061;-34
2022/07/16 02:09:31;;;;;;;7.85;3.33;;;;;;;14.18;61.71;96436.47;2073061;28;20042;-37
2022/07/16 02:10:33;;;;;;;7.13;3.40;;;;;;;14.14;62.07;96445.41;2073123;28;20056;-34
2022/07/16 02:11:34;;;;;;;9.40;3.47;;;;;;;14.10;62.37;96443.88;2065756;28;20439;-35
2022/07/16 02:12:35;;;;;;;6.28;3.20;;;;;;;14.05;62.61;96433.69;2065446;28;20049;-34
2022/07/16 02:13:36;;;;;;;7.15;3.40;;;;;;;14.01;62.71;96441.78;2057102;28;20042;-33
2022/07/16 02:14:37;;;;;;;6.40;3.00;;;;;;;14.00;63.10;96440.91;2065196;28;20053;-37
2022/07/16 02:15:39;;;;;;;9.18;3.20;;;;;;;13.97;62.54;96443.69;2065247;28;20054;-34
2022/07/16 02:16:40;;;;;;;5.68;2.65;;;;;;;13.92;62.53;96443.09;2073332;28;20048;-36
2022/07/16 02:17:41;;;;;;;6.13;3.00;;;;;;;13.89;62.78;96441.50;2065397;28;20518;-34
2022/07/16 02:18:42;;;;;;;6.55;2.80;;;;;;;13.86;62.65;96444.28;2056754;28;20401;-34
2022/07/16 02:19:43;;;;;;;7.40;3.08;;;;;;;13.84;62.49;96443.50;2057399;28;20054;-34
2022/07/16 02:20:45;;;;;;;7.72;2.70;;;;;;;13.78;62.43;96446.44;2064856;28;20393;-33
2022/07/16 02:21:46;;;;;;;6.20;2.95;;;;;;;13.76;62.35;96452.66;2073121;28;20050;-35
2022/07/16 02:22:47;;;;;;;8.38;3.00;;;;;;;13.71;63.14;96449.44;2072472;28;20500;-35
2022/07/16 02:23:49;;;;;;;10.55;3.15;;;;;;;13.68;63.01;96448.72;2064922;28;20456;-35
2022/07/16 02:24:50;;;;;;;9.60;3.53;;;;;;;13.66;63.56;96447.09;2064979;28;20058;-38
2022/07/16 02:25:51;;;;;;;4.50;2.63;;;;;;;13.64;63.86;96451.56;2081969;28;20041;-34
2022/07/16 02:26:52;;;;;;;9.00;3.20;;;;;;;13.61;63.67;96449.09;2081930;28;20045;-35
2022/07/16 02:28:09;;;;;;;6.13;2.67;;;;;;;13.61;63.53;96443.91;2065224;28;20138;-34
2022/07/16 02:29:11;;;;;;;5.70;3.00;;;;;;;13.56;63.23;96451.94;2053688;28;20047;-38
2022/07/16 02:30:12;;;;;;;6.85;2.83;;;;;;;13.53;63.37;96440.84;2049129;28;20051;-35
2022/07/16 02:31:13;;;;;;;4.50;2.92;;;;;;;13.50;63.39;96444.44;2048753;28;20493;-35
2022/07/16 02:32:15;;;;;;;6.32;3.08;;;;;;;13.49;63.50;96450.56;2064730;28;20050;-36
2022/07/16 02:33:18;;;;;;;7.93;2.85;;;;;;;13.46;64.19;96453.34;2073151;28;20046;-34
2022/07/16 02:34:19;;;;;;;6.70;2.80;;;;;;;13.47;63.54;96449.81;2072870;28;20546;-35
2022/07/16 02:35:20;;;;;;;6.22;2.95;;;;;;;13.44;64.64;96453.44;2073144;28;20045;-34
2022/07/16 02:36:21;;;;;;;7.03;3.20;;;;;;;13.42;63.92;96450.06;2073200;28;20041;-34
2022/07/16 02:37:22;;;;;;;8.68;3.70;;;;;;;13.38;65.12;96448.50;2057430;28;20046;-38
2022/07/16 02:38:24;;;;;;;7.75;2.97;;;;;;;13.36;64.10;96460.78;2041523;28;20051;-35
2022/07/16 02:39:25;;;;;;;7.93;3.20;;;;;;;13.34;64.20;96454.81;2049393;28;20047;-35
2022/07/16 02:40:27;;;;;;;7.85;2.97;;;;;;;13.32;64.39;96454.06;2057101;28;20050;-34
2022/07/16 02:41:28;;;;;;;4.80;2.90;;;;;;;13.28;64.62;96451.66;2072786;28;20056;-35
2022/07/16 02:42:29;;;;;;;6.97;3.13;;;;;;;13.28;64.70;96444.69;2064455;28;20046;-35
2022/07/16 02:43:31;;;;;;;8.77;3.13;;;;;;;13.26;64.22;96446.53;2057250;28;20049;-33
2022/07/16 02:44:32;;;;;;;5.32;3.10;;;;;;;13.26;64.32;96446.53;2056752;28;20501;-36
2022/07/16 02:45:34;;;;;;;10.02;3.13;;;;;;;13.28;64.36;96452.50;2057365;28;20054;-36
2022/07/16 02:46:35;;;;;;;5.68;3.10;;;;;;;13.25;64.46;96442.19;2057473;28;20051;-38
2022/07/16 02:49:06;;;;;;;9.27;3.60;;;;;;;13.19;65.69;96451.19;2051895;28;20054;-39
2022/07/16 02:50:08;;;;;;;3.92;2.75;;;;;;;13.13;65.55;96445.44;2056360;28;20050;-42
2022/07/16 02:51:09;;;;;;;6.50;2.83;;;;;;;13.07;65.78;96440.50;2056243;28;20547;-39
2022/07/16 02:52:10;;;;;;;7.95;3.55;;;;;;;13.05;65.44;96447.59;2056000;28;20055;-40
2022/07/16 02:53:11;;;;;;;8.55;3.22;;;;;;;12.98;66.00;96442.66;2057388;28;20042;-42
2022/07/16 02:54:12;;;;;;;8.57;3.30;;;;;;;12.94;67.52;96451.56;2056255;28;20043;-39
2022/07/16 02:55:14;;;;;;;6.28;3.22;;;;;;;12.93;67.82;96452.47;2048588;28;20051;-43
2022/07/16 02:56:15;;;;;;;5.72;3.17;;;;;;;12.92;68.56;96450.78;2057024;28;20540;-41
2022/07/16 02:57:16;;;;;;;5.53;3.10;;;;;;;12.88;67.97;96453.63;2056600;28;20054;-41
2022/07/16 02:58:18;;;;;;;9.20;3.28;;;;;;;12.87;68.45;96454.56;2057033;28;20094;-40
2022/07/16 02:59:19;;;;;;;10.57;3.38;;;;;;;12.83;68.65;96453.88;2056840;28;20042;-39
2022/07/16 03:00:20;;;;;;;3.55;2.70;;;;;;;12.81;68.41;96447.88;2048796;29;20050;-41
2022/07/16 03:01:21;;;;;;;8.15;3.33;;;;;;;12.76;68.85;96449.88;2049585;28;20047;-40
2022/07/16 03:02:23;;;;;;;7.88;3.05;;;;;;;12.75;69.43;96456.84;2056580;28;20386;-41
2022/07/16 03:03:24;;;;;;;8.77;3.70;;;;;;;12.72;68.72;96458.72;2056786;28;20053;-42
2022/07/16 03:04:25;;;;;;;4.55;3.25;;;;;;;12.60;69.00;96439.34;2055890;28;20050;-41
2022/07/16 03:05:26;;;;;;;7.93;3.38;;;;;;;12.66;69.70;96453.81;2048764;29;20050;-39
2022/07/16 03:06:27;;;;;;;5.45;3.05;;;;;;;12.64;69.35;96459.09;2048970;28;20050;-40
2022/07/16 03:07:29;;;;;;;5.63;3.15;;;;;;;12.63;69.78;96456.59;2057547;28;20073;-39
2022/07/16 03:08:30;;;;;;;5.78;2.95;;;;;;;12.61;69.75;96456.63;2056516;28;20047;-43
2022/07/16 03:09:31;;;;;;;8.43;3.33;;;;;;;12.60;69.06;96449.75;2056710;28;20053;-39
2022/07/16 03:10:32;;;;;;;6.43;3.25;;;;;;;12.58;70.28;96455.03;2064285;28;20050;-41
2022/07/16 03:11:34;;;;;;;5.57;3.42;;;;;;;12.55;70.36;96455.19;2048315;28;20529;-39
2022/07/16 03:12:35;;;;;;;7.90;3.78;;;;;;;12.53;70.06;96453.56;2048475;28;20051;-40
2022/07/16 03:13:36;;;;;;;7.00;3.47;;;;;;;12.50;70.57;96458.94;2056319;28;20685;-38
2022/07/16 03:14:37;;;;;;;6.18;3.45;;;;;;;12.47;69.39;96459.91;2048676;28;20098;-38
2022/07/16 03:15:38;;;;;;;5.35;3.47;;;;;;;12.47;70.08;96459.91;2048182;29;20055;-43
2022/07/16 03:16:40;;;;;;;7.43;3.90;;;;;;;12.45;69.83;96463.50;2048885;29;20043;-39
2022/07/16 03:17:41;;;;;;;7.60;3.70;;;;;;;12.43;69.09;96465.31;2056179;28;20047;-40
2022/07/16 03:18:42;;;;;;;8.25;3.38;;;;;;;12.45;69.60;96461.72;2064226;28;20164;-39
2022/07/16 03:19:43;;;;;;;6.53;3.15;;;;;;;12.51;69.42;96464.06;2048960;28;20541;-41
2022/07/16 03:20:45;;;;;;;8.43;3.47;;;;;;;12.51;69.70;96461.47;2041006;29;20537;-43
2022/07/16 03:21:46;;;;;;;9.07;3.53;;;;;;;12.55;69.87;96460.38;2048509;29;20563;-38
2022/07/16 03:22:47;;;;;;;6.07;3.40;;;;;;;12.57;69.06;96458.56;2048181;29;20047;-40
2022/07/16 03:23:48;;;;;;;6.90;3.40;;;;;;;12.54;69.46;96460.47;2048380;28;20058;-40
2022/07/16 03:24:49;;;;;;;6.65;3.33;;;;;;;12.54;69.66;96465.69;2057059;28;20046;-39
2022/07/16 03:25:50;;;;;;;7.63;3.42;;;;;;;12.58;70.11;96468.06;2056841;28;20444;-38
2022/07/16 03:26:52;;;;;;;6.60;3.60;;;;;;;12.56;70.65;96469.91;2056525;28;20066;-39
2022/07/16 03:27:53;;;;;;;9.35;3.92;;;;;;;12.57;70.91;96465.53;2048346;29;20047;-42
2022/07/16 03:28:54;;;;;;;5.38;3.42;;;;;;;12.56;70.14;96464.69;2048342;28;20047;-38
2022/07/16 03:29:55;;;;;;;6.68;3.28;;;;;;;12.61;67.76;96467.06;2046059;29;20481;-41
2022/07/16 03:30:56;;;;;;;7.80;3.10;;;;;;;12.60;67.79;96472.38;2048033;28;20047;-39
2022/07/16 03:31:57;;;;;;;5.78;3.25;;;;;;;12.58;67.76;96469.81;2048730;29;20058;-40
2022/07/16 03:32:59;;;;;;;8.10;3.53;;;;;;;12.55;67.39;96468.19;2041185;28;20043;-40
2022/07/16 03:34:00;;;;;;;9.13;3.67;;;;;;;12.60;68.59;96467.16;2056955;28;20094;-39
2022/07/16 03:35:06;;;;;;;5.40;3.72;;;;;;;12.55;68.66;96467.38;2056184;28;20042;-44
2022/07/16 03:36:07;;;;;;;4.47;3.10;;;;;;;12.55;68.15;96464.75;2041310;29;20043;-39
2022/07/16 03:37:08;;;;;;;8.38;2.90;;;;;;;12.55;68.70;96465.59;2040641;29;20098;-39
2022/07/16 03:39:31;;;;;;;8.27;3.75;;;;;;;12.53;68.92;96475.25;2041087;28;20038;-39
2022/07/16 03:40:32;;;;;;;6.45;3.53;;;;;;;12.53;68.63;96475.25;2042907;29;20047;-40
2022/07/16 03:41:35;;;;;;;6.53;3.33;;;;;;;12.50;68.94;96469.34;2041208;29;20556;-43
2022/07/16 03:42:36;;;;;;;5.78;3.50;;;;;;;12.51;69.14;96466.69;2041209;28;20054;-42
2022/07/16 03:43:37;;;;;;;10.90;3.50;;;;;;;12.50;69.47;96474.56;2040792;29;20040;-39
2022/07/16 03:44:38;;;;;;;9.35;3.58;;;;;;;12.50;68.09;96471.94;2048927;28;20058;-40
2022/07/16 03:45:40;;;;;;;6.60;3.42;;;;;;;12.49;68.54;96471.09;2040719;29;20047;-43
2022/07/16 03:46:41;;;;;;;6.30;3.03;;;;;;;12.49;68.40;96484.13;2040513;28;20048;-41
2022/07/16 03:47:42;;;;;;;5.28;3.45;;;;;;;12.49;68.58;96484.13;2056236;28;20053;-38
2022/07/16 03:48:44;;;;;;;7.88;3.25;;;;;;;12.50;69.46;96479.75;2056853;28;20055;-43
2022/07/16 03:49:45;;;;;;;5.93;2.95;;;;;;;12.49;68.90;96485.91;2056527;28;20046;-41
2022/07/16 03:50:46;;;;;;;5.75;3.05;;;;;;;12.57;67.74;96483.78;2048834;28;20051;-41
2022/07/16 03:51:48;;;;;;;6.50;3.40;;;;;;;12.59;67.95;96484.56;2056619;28;20073;-40
2022/07/16 03:52:49;;;;;;;7.10;3.30;;;;;;;12.58;67.19;96485.44;2048595;29;20047;-39
2022/07/16 03:53:50;;;;;;;4.82;3.22;;;;;;;12.60;66.75;96486.22;2048960;28;20525;-43
2022/07/16 03:54:51;;;;;;;7.22;3.30;;;;;;;12.65;66.14;96486.84;2057154;28;20049;-39
2022/07/16 03:55:52;;;;;;;6.55;3.20;;;;;;;12.64;67.19;96479.09;2064219;28;20081;-40
2022/07/16 03:56:54;;;;;;;8.70;3.50;;;;;;;12.63;67.43;96490.47;2064043;28;20053;-40
2022/07/16 03:57:55;;;;;;;5.90;3.08;;;;;;;12.62;66.77;96484.41;2056022;28;20054;-40
2022/07/16 03:58:56;;;;;;;8.05;3.65;;;;;;;12.68;66.03;96488.47;2048554;28;20437;-42
2022/07/16 03:59:57;;;;;;;7.15;3.47;;;;;;;12.84;65.68;96486.81;2040822;29;20048;-40
2022/07/16 04:00:59;;;;;;;7.97;2.95;;;;;;;12.82;65.74;96486.03;2048106;28;20051;-42
2022/07/16 04:02:00;;;;;;;7.88;3.38;;;;;;;12.82;66.36;96483.44;2063508;28;20046;-39
2022/07/16 04:03:01;;;;;;;6.00;3.33;;;;;;;12.84;67.09;96494.63;2048342;29;20541;-42
2022/07/16 04:04:03;;;;;;;5.15;3.28;;;;;;;12.84;66.03;96485.97;2048104;28;20055;-43
2022/07/16 04:05:04;;;;;;;6.05;3.15;;;;;;;12.83;65.91;96487.75;2056390;28;20050;-40
2022/07/16 04:06:06;;;;;;;6.13;3.25;;;;;;;12.82;65.46;96490.41;2056091;28;20051;-40
2022/07/16 04:07:07;;;;;;;9.35;3.47;;;;;;;12.83;65.06;96495.56;2055939;28;20039;-42
2022/07/16 04:08:08;;;;;;;4.78;3.17;;;;;;;12.83;65.99;96487.75;2056474;28;20050;-41
2022/07/16 04:09:10;;;;;;;4.95;3.67;;;;;;;12.88;65.44;96490.94;2056606;28;20050;-40
2022/07/16 04:10:11;;;;;;;6.70;3.28;;;;;;;12.92;65.34;96489.91;2040572;29;20047;-42
2022/07/16 04:11:12;;;;;;;8.98;3.70;;;;;;;12.94;64.96;96497.66;2039623;28;20071;-39
2022/07/16 04:12:14;;;;;;;12.20;3.47;;;;;;;12.97;65.59;96489.69;2047553;29;20055;-41
2022/07/16 04:13:15;;;;;;;5.85;3.40;;;;;;;12.97;65.04;96487.91;2048918;28;20059;-41
2022/07/16 04:14:17;;;;;;;9.95;3.10;;;;;;;13.01;65.55;96486.81;2056521;28;20039;-40
2022/07/16 04:15:18;;;;;;;6.35;3.50;;;;;;;13.05;64.98;96495.38;2033399;29;20454;-41
2022/07/16 04:16:19;;;;;;;6.25;3.50;;;;;;;13.03;65.70;96492.81;2040330;28;20534;-43
2022/07/16 04:17:20;;;;;;;7.55;3.20;;;;;;;13.07;65.14;96492.66;2064013;28;20049;-41
2022/07/16 04:18:22;;;;;;;8.55;3.35;;;;;;;13.06;65.38;96493.59;2056277;28;20046;-41
2022/07/16 04:19:23;;;;;;;8.48;3.55;;;;;;;13.06;65.74;96488.38;2048773;28;20043;-40
2022/07/16 04:20:24;;;;;;;6.25;3.50;;;;;;;13.11;65.34;96491.59;2056147;28;20472;-41
2022/07/16 04:21:25;;;;;;;5.38;3.28;;;;;;;13.11;65.04;96496.81;2055852;28;20046;-43
2022/07/16 04:22:27;;;;;;;7.78;3.65;;;;;;;13.11;66.02;96495.06;2048098;28;20050;-39
2022/07/16 04:23:28;;;;;;;6.80;3.25;;;;;;;13.14;66.75;96494.91;2045145;29;20425;-39
2022/07/16 04:24:29;;;;;;;6.05;3.80;;;;;;;13.17;66.39;96491.28;2040533;29;20054;-38
2022/07/16 04:25:30;;;;;;;7.38;3.42;;;;;;;13.18;67.25;96498.22;2048542;28;20047;-41
2022/07/16 04:26:32;;;;;;;6.88;3.38;;;;;;;13.23;66.40;96494.47;2056742;28;20046;-42
2022/07/16 04:27:33;;;;;;;6.93;3.10;;;;;;;13.27;66.38;96491.72;2048277;29;20050;-39
2022/07/16 04:28:34;;;;;;;7.65;3.90;;;;;;;13.32;64.31;96501.00;2048254;29;20541;-40
2022/07/16 04:29:35;;;;;;;5.28;3.53;;;;;;;13.29;64.33;96485.50;2059246;28;20713;-40
2022/07/16 04:30:37;;;;;;;7.50;3.30;;;;;;;13.37;64.42;96493.78;2056479;28;20059;-39
2022/07/16 04:31:38;;;;;;;6.32;3.22;;;;;;;13.37;64.65;96495.56;2048468;28;20043;-42
2022/07/16 04:32:39;;;;;;;7.15;3.58;;;;;;;13.40;64.74;96495.41;2063666;28;20045;-40
2022/07/16 04:33:40;;;;;;;6.32;3.25;;;;;;;13.43;64.37;96496.09;2055935;28;20061;-40
2022/07/16 04:34:42;;;;;;;7.13;3.42;;;;;;;13.44;64.21;96495.19;2056040;28;20934;-40
2022/07/16 04:35:43;;;;;;;6.03;3.47;;;;;;;13.50;64.11;96495.75;2055856;28;20543;-39
2022/07/16 04:36:44;;;;;;;6.18;3.50;;;;;;;13.51;64.49;96495.69;2048192;28;20054;-41
2022/07/16 04:37:45;;;;;;;5.53;3.63;;;;;;;13.55;63.49;96498.97;2056446;28;20050;-41
2022/07/16 04:38:47;;;;;;;8.38;3.80;;;;;;;13.57;63.85;96495.38;2055726;28;20046;-41
2022/07/16 04:39:48;;;;;;;6.13;3.33;;;;;;;13.59;62.62;96495.31;2055879;28;20047;-39
2022/07/16 04:40:49;;;;;;;5.15;3.13;;;;;;;13.62;62.68;96502.97;2047765;28;20047;-39
2022/07/16 04:41:50;;;;;;;7.53;3.33;;;;;;;13.67;62.74;96503.59;2048108;29;20047;-41
2022/07/16 04:42:51;;;;;;;7.22;3.40;;;;;;;13.71;63.42;96502.50;2055969;28;20054;-40
2022/07/16 04:43:53;;;;;;;7.78;3.28;;;;;;;13.73;62.57;96505.88;2063854;28;20046;-41
2022/07/16 04:44:54;;;;;;;5.57;3.28;;;;;;;13.76;62.27;96503.09;2063360;28;20476;-39
2022/07/16 04:45:55;;;;;;;5.63;3.15;;;;;;;13.79;61.71;96510.81;2064596;28;20057;-39
2022/07/16 04:46:56;;;;;;;5.68;3.03;;;;;;;13.82;63.17;96510.63;2055903;28;20418;-43
2022/07/16 04:47:58;;;;;;;6.45;3.10;;;;;;;13.84;63.63;96502.69;2047512;28;20055;-40
2022/07/16 04:48:59;;;;;;;8.38;3.65;;;;;;;13.79;63.61;96509.94;2048325;28;20466;-40
2022/07/16 04:50:00;;;;;;;6.07;3.10;;;;;;;13.87;62.11;96510.38;2056272;28;20417;-41
2022/07/16 04:51:01;;;;;;;5.85;3.08;;;;;;;13.89;61.88;96506.75;2056067;28;20046;-40
2022/07/16 04:52:03;;;;;;;7.50;3.50;;;;;;;13.92;61.34;96507.53;2056060;28;20452;-42
2022/07/16 04:53:04;;;;;;;6.63;3.55;;;;;;;13.91;61.89;96514.53;2048725;28;20575;-40
2022/07/16 04:54:06;;;;;;;9.07;3.15;;;;;;;13.96;61.50;96507.31;2048367;29;20062;-39
2022/07/16 04:55:08;;;;;;;8.05;3.33;;;;;;;14.01;61.80;96505.28;2048154;28;20444;-40
2022/07/16 04:56:09;;;;;;;8.23;3.40;;;;;;;14.04;62.01;96506.91;2048408;28;20439;-44
2022/07/16 04:57:10;;;;;;;9.52;3.40;;;;;;;14.09;61.15;96504.88;2048401;29;20524;-39